Harrisville, New York
Current Conditions -  °F | °C
As of 2:58 PM on Monday 22 Dec 2014 (Local Time) from KGTB Reporting Station
Overcast Overcast  
Wind Chill: 28°   Ceiling: 2400
Heat Index: 36°   Visibility: 10mi
Dew Point: 24°   Wind: 13mph
Humidity: 61%   Direction: 140°SE
Pressure: 30.18"   Gusts: NA
Location:  44.15°N, 75.32°W
Report Text: KGTB 221958Z AUTO 14011KT 10SM OVC024 02/M04 A3018 RMK AO2 SLP230 T00231045
Loading
Personal Weather Stations






























Interactive Weather Map New forecast layout! Learn more

10-Day Weather Forecast

Advertisements
Track Severe Weather on mobile